sensor_id;sensor_type;location;lat;lon;timestamp;P1;durP1;ratioP1;P2;durP2;ratioP2
23270;SDS011;11804;51.118;17.058;2024-02-26T00:00:14;25.67;;;9.83;;
23270;SDS011;11804;51.118;17.058;2024-02-26T00:02:42;23.13;;;9.67;;
23270;SDS011;11804;51.118;17.058;2024-02-26T00:05:09;18.57;;;9.10;;
23270;SDS011;11804;51.118;17.058;2024-02-26T00:07:37;23.13;;;9.97;;
23270;SDS011;11804;51.118;17.058;2024-02-26T00:10:05;18.53;;;8.47;;
23270;SDS011;11804;51.118;17.058;2024-02-26T00:12:34;21.87;;;9.60;;
23270;SDS011;11804;51.118;17.058;2024-02-26T00:15:02;21.37;;;9.40;;
23270;SDS011;11804;51.118;17.058;2024-02-26T00:17:29;21.10;;;9.33;;
23270;SDS011;11804;51.118;17.058;2024-02-26T00:19:57;22.73;;;8.67;;
23270;SDS011;11804;51.118;17.058;2024-02-26T00:22:26;19.93;;;9.70;;
23270;SDS011;11804;51.118;17.058;2024-02-26T00:24:54;24.23;;;9.67;;
23270;SDS011;11804;51.118;17.058;2024-02-26T00:27:21;23.60;;;9.13;;
23270;SDS011;11804;51.118;17.058;2024-02-26T00:29:49;25.13;;;9.10;;
23270;SDS011;11804;51.118;17.058;2024-02-26T00:32:16;16.63;;;8.50;;
23270;SDS011;11804;51.118;17.058;2024-02-26T00:34:44;16.23;;;8.53;;
23270;SDS011;11804;51.118;17.058;2024-02-26T00:37:12;21.53;;;9.87;;
23270;SDS011;11804;51.118;17.058;2024-02-26T00:39:39;21.10;;;7.67;;
23270;SDS011;11804;51.118;17.058;2024-02-26T00:42:07;15.90;;;8.07;;
23270;SDS011;11804;51.118;17.058;2024-02-26T00:44:35;17.77;;;8.13;;
23270;SDS011;11804;51.118;17.058;2024-02-26T00:47:02;23.57;;;8.87;;
23270;SDS011;11804;51.118;17.058;2024-02-26T00:49:30;17.30;;;7.17;;
23270;SDS011;11804;51.118;17.058;2024-02-26T00:51:57;14.60;;;7.70;;
23270;SDS011;11804;51.118;17.058;2024-02-26T00:54:25;19.63;;;7.83;;
23270;SDS011;11804;51.118;17.058;2024-02-26T00:56:52;19.10;;;8.40;;
23270;SDS011;11804;51.118;17.058;2024-02-26T00:59:20;19.17;;;8.13;;
23270;SDS011;11804;51.118;17.058;2024-02-26T01:01:48;14.53;;;7.23;;
23270;SDS011;11804;51.118;17.058;2024-02-26T01:04:17;12.83;;;6.40;;
23270;SDS011;11804;51.118;17.058;2024-02-26T01:06:48;12.27;;;6.20;;
23270;SDS011;11804;51.118;17.058;2024-02-26T01:09:18;10.10;;;5.83;;
23270;SDS011;11804;51.118;17.058;2024-02-26T01:11:48;10.53;;;4.97;;
23270;SDS011;11804;51.118;17.058;2024-02-26T01:14:18;18.53;;;6.87;;
23270;SDS011;11804;51.118;17.058;2024-02-26T01:16:49;17.73;;;6.40;;
23270;SDS011;11804;51.118;17.058;2024-02-26T01:19:18;20.90;;;6.60;;
23270;SDS011;11804;51.118;17.058;2024-02-26T01:21:47;10.43;;;5.03;;
23270;SDS011;11804;51.118;17.058;2024-02-26T01:24:17;12.03;;;5.47;;
23270;SDS011;11804;51.118;17.058;2024-02-26T01:26:46;12.20;;;6.13;;
23270;SDS011;11804;51.118;17.058;2024-02-26T01:29:16;11.53;;;6.10;;
23270;SDS011;11804;51.118;17.058;2024-02-26T01:31:47;13.47;;;6.23;;
23270;SDS011;11804;51.118;17.058;2024-02-26T01:34:17;11.20;;;5.43;;
23270;SDS011;11804;51.118;17.058;2024-02-26T01:36:47;15.70;;;6.73;;
23270;SDS011;11804;51.118;17.058;2024-02-26T01:39:17;11.60;;;6.23;;
23270;SDS011;11804;51.118;17.058;2024-02-26T01:41:48;15.30;;;6.97;;
23270;SDS011;11804;51.118;17.058;2024-02-26T01:44:18;12.73;;;6.00;;
23270;SDS011;11804;51.118;17.058;2024-02-26T01:46:46;15.20;;;6.77;;
23270;SDS011;11804;51.118;17.058;2024-02-26T01:49:14;17.10;;;6.20;;
23270;SDS011;11804;51.118;17.058;2024-02-26T01:51:42;15.07;;;5.47;;
23270;SDS011;11804;51.118;17.058;2024-02-26T01:54:11;12.73;;;5.03;;
23270;SDS011;11804;51.118;17.058;2024-02-26T01:56:39;14.70;;;5.90;;
23270;SDS011;11804;51.118;17.058;2024-02-26T01:59:07;13.17;;;5.43;;
23270;SDS011;11804;51.118;17.058;2024-02-26T02:01:36;14.60;;;5.53;;
23270;SDS011;11804;51.118;17.058;2024-02-26T02:04:07;14.13;;;6.60;;
23270;SDS011;11804;51.118;17.058;2024-02-26T02:06:37;16.33;;;5.53;;
23270;SDS011;11804;51.118;17.058;2024-02-26T02:09:07;11.80;;;5.40;;
23270;SDS011;11804;51.118;17.058;2024-02-26T02:11:36;16.17;;;5.70;;
23270;SDS011;11804;51.118;17.058;2024-02-26T02:14:05;23.00;;;7.20;;
23270;SDS011;11804;51.118;17.058;2024-02-26T02:16:34;18.60;;;6.87;;
23270;SDS011;11804;51.118;17.058;2024-02-26T02:19:04;12.43;;;6.03;;
23270;SDS011;11804;51.118;17.058;2024-02-26T02:21:34;13.30;;;6.27;;
23270;SDS011;11804;51.118;17.058;2024-02-26T02:24:04;15.30;;;5.67;;
23270;SDS011;11804;51.118;17.058;2024-02-26T02:26:34;13.47;;;7.53;;
23270;SDS011;11804;51.118;17.058;2024-02-26T02:29:02;12.60;;;6.47;;
23270;SDS011;11804;51.118;17.058;2024-02-26T02:31:32;13.13;;;5.43;;
23270;SDS011;11804;51.118;17.058;2024-02-26T02:34:01;15.33;;;5.67;;
23270;SDS011;11804;51.118;17.058;2024-02-26T02:36:30;14.13;;;5.67;;
23270;SDS011;11804;51.118;17.058;2024-02-26T02:38:57;12.57;;;6.33;;
23270;SDS011;11804;51.118;17.058;2024-02-26T02:41:25;14.50;;;6.20;;
23270;SDS011;11804;51.118;17.058;2024-02-26T02:43:54;10.87;;;5.63;;
23270;SDS011;11804;51.118;17.058;2024-02-26T02:46:22;14.50;;;7.10;;
23270;SDS011;11804;51.118;17.058;2024-02-26T02:48:49;20.80;;;7.37;;
23270;SDS011;11804;51.118;17.058;2024-02-26T02:51:17;23.60;;;10.07;;
23270;SDS011;11804;51.118;17.058;2024-02-26T02:53:44;18.80;;;8.80;;
23270;SDS011;11804;51.118;17.058;2024-02-26T02:56:12;18.57;;;8.87;;
23270;SDS011;11804;51.118;17.058;2024-02-26T02:58:40;14.50;;;6.23;;
23270;SDS011;11804;51.118;17.058;2024-02-26T03:01:07;14.33;;;5.90;;
23270;SDS011;11804;51.118;17.058;2024-02-26T03:03:35;11.17;;;5.93;;
23270;SDS011;11804;51.118;17.058;2024-02-26T03:06:03;15.03;;;5.93;;
23270;SDS011;11804;51.118;17.058;2024-02-26T03:08:31;9.03;;;4.57;;
23270;SDS011;11804;51.118;17.058;2024-02-26T03:10:58;10.97;;;5.40;;
23270;SDS011;11804;51.118;17.058;2024-02-26T03:13:26;12.07;;;5.80;;
23270;SDS011;11804;51.118;17.058;2024-02-26T03:15:54;11.47;;;5.03;;
23270;SDS011;11804;51.118;17.058;2024-02-26T03:18:23;12.13;;;5.73;;
23270;SDS011;11804;51.118;17.058;2024-02-26T03:20:51;9.90;;;5.30;;
23270;SDS011;11804;51.118;17.058;2024-02-26T03:23:20;12.10;;;6.23;;
23270;SDS011;11804;51.118;17.058;2024-02-26T03:25:48;12.73;;;5.63;;
23270;SDS011;11804;51.118;17.058;2024-02-26T03:28:15;15.03;;;7.17;;
23270;SDS011;11804;51.118;17.058;2024-02-26T03:30:43;11.97;;;6.00;;
23270;SDS011;11804;51.118;17.058;2024-02-26T03:33:12;15.00;;;6.70;;
23270;SDS011;11804;51.118;17.058;2024-02-26T03:35:39;13.60;;;6.67;;
23270;SDS011;11804;51.118;17.058;2024-02-26T03:38:07;15.50;;;8.37;;
23270;SDS011;11804;51.118;17.058;2024-02-26T03:40:35;12.73;;;7.37;;
23270;SDS011;11804;51.118;17.058;2024-02-26T03:43:02;13.90;;;6.43;;
23270;SDS011;11804;51.118;17.058;2024-02-26T03:45:30;13.70;;;6.77;;
23270;SDS011;11804;51.118;17.058;2024-02-26T03:47:58;11.93;;;5.90;;
23270;SDS011;11804;51.118;17.058;2024-02-26T03:50:26;16.70;;;5.73;;
23270;SDS011;11804;51.118;17.058;2024-02-26T03:52:53;12.40;;;5.60;;
23270;SDS011;11804;51.118;17.058;2024-02-26T03:55:22;15.93;;;6.47;;
23270;SDS011;11804;51.118;17.058;2024-02-26T03:57:51;14.50;;;6.80;;
23270;SDS011;11804;51.118;17.058;2024-02-26T04:00:19;12.33;;;5.13;;
23270;SDS011;11804;51.118;17.058;2024-02-26T04:02:47;8.17;;;4.27;;
23270;SDS011;11804;51.118;17.058;2024-02-26T04:05:15;7.30;;;4.37;;
23270;SDS011;11804;51.118;17.058;2024-02-26T04:07:43;10.93;;;5.53;;
23270;SDS011;11804;51.118;17.058;2024-02-26T04:10:12;9.27;;;4.57;;
23270;SDS011;11804;51.118;17.058;2024-02-26T04:12:41;10.17;;;5.23;;
23270;SDS011;11804;51.118;17.058;2024-02-26T04:15:09;10.97;;;4.53;;
23270;SDS011;11804;51.118;17.058;2024-02-26T04:17:37;8.60;;;4.60;;
23270;SDS011;11804;51.118;17.058;2024-02-26T04:20:06;10.93;;;4.43;;
23270;SDS011;11804;51.118;17.058;2024-02-26T04:22:34;9.33;;;4.73;;
23270;SDS011;11804;51.118;17.058;2024-02-26T04:25:01;9.97;;;4.93;;
23270;SDS011;11804;51.118;17.058;2024-02-26T04:27:29;12.90;;;5.33;;
23270;SDS011;11804;51.118;17.058;2024-02-26T04:29:57;11.83;;;5.57;;
23270;SDS011;11804;51.118;17.058;2024-02-26T04:32:24;10.83;;;5.43;;
23270;SDS011;11804;51.118;17.058;2024-02-26T04:34:53;10.47;;;4.60;;
23270;SDS011;11804;51.118;17.058;2024-02-26T04:37:21;9.47;;;4.07;;
23270;SDS011;11804;51.118;17.058;2024-02-26T04:39:49;10.40;;;5.10;;
23270;SDS011;11804;51.118;17.058;2024-02-26T04:42:16;11.03;;;4.37;;
23270;SDS011;11804;51.118;17.058;2024-02-26T04:44:44;12.27;;;4.43;;
23270;SDS011;11804;51.118;17.058;2024-02-26T04:47:11;12.67;;;5.40;;
23270;SDS011;11804;51.118;17.058;2024-02-26T04:49:39;9.43;;;4.83;;
23270;SDS011;11804;51.118;17.058;2024-02-26T04:52:07;13.27;;;5.33;;
23270;SDS011;11804;51.118;17.058;2024-02-26T04:54:35;8.07;;;4.57;;
23270;SDS011;11804;51.118;17.058;2024-02-26T04:57:02;10.27;;;4.87;;
23270;SDS011;11804;51.118;17.058;2024-02-26T04:59:30;9.10;;;4.50;;
23270;SDS011;11804;51.118;17.058;2024-02-26T05:01:58;13.63;;;5.00;;
23270;SDS011;11804;51.118;17.058;2024-02-26T05:04:25;14.50;;;5.00;;
23270;SDS011;11804;51.118;17.058;2024-02-26T05:06:54;9.20;;;4.27;;
23270;SDS011;11804;51.118;17.058;2024-02-26T05:09:22;12.73;;;4.50;;
23270;SDS011;11804;51.118;17.058;2024-02-26T05:11:50;9.80;;;5.10;;
23270;SDS011;11804;51.118;17.058;2024-02-26T05:14:17;17.60;;;6.10;;
23270;SDS011;11804;51.118;17.058;2024-02-26T05:16:45;12.70;;;5.20;;
23270;SDS011;11804;51.118;17.058;2024-02-26T05:19:12;11.83;;;5.23;;
23270;SDS011;11804;51.118;17.058;2024-02-26T05:21:40;13.53;;;6.33;;
23270;SDS011;11804;51.118;17.058;2024-02-26T05:24:10;13.37;;;5.77;;
23270;SDS011;11804;51.118;17.058;2024-02-26T05:26:37;14.47;;;5.87;;
23270;SDS011;11804;51.118;17.058;2024-02-26T05:29:05;16.37;;;5.33;;
23270;SDS011;11804;51.118;17.058;2024-02-26T05:31:33;10.23;;;5.97;;
23270;SDS011;11804;51.118;17.058;2024-02-26T05:34:00;8.70;;;4.93;;
23270;SDS011;11804;51.118;17.058;2024-02-26T05:36:28;8.70;;;5.33;;
23270;SDS011;11804;51.118;17.058;2024-02-26T05:38:57;12.07;;;5.70;;
23270;SDS011;11804;51.118;17.058;2024-02-26T05:41:25;12.97;;;5.90;;
23270;SDS011;11804;51.118;17.058;2024-02-26T05:43:53;10.97;;;5.40;;
23270;SDS011;11804;51.118;17.058;2024-02-26T05:46:20;15.67;;;5.37;;
23270;SDS011;11804;51.118;17.058;2024-02-26T05:48:53;13.03;;;6.13;;
23270;SDS011;11804;51.118;17.058;2024-02-26T05:51:19;14.53;;;5.90;;
23270;SDS011;11804;51.118;17.058;2024-02-26T05:53:47;10.13;;;5.60;;
23270;SDS011;11804;51.118;17.058;2024-02-26T05:56:16;14.10;;;6.10;;
23270;SDS011;11804;51.118;17.058;2024-02-26T05:58:43;13.30;;;6.03;;
23270;SDS011;11804;51.118;17.058;2024-02-26T06:01:11;11.80;;;5.23;;
23270;SDS011;11804;51.118;17.058;2024-02-26T06:03:39;11.97;;;6.17;;
23270;SDS011;11804;51.118;17.058;2024-02-26T06:06:06;10.77;;;5.73;;
23270;SDS011;11804;51.118;17.058;2024-02-26T06:08:34;9.27;;;5.10;;
23270;SDS011;11804;51.118;17.058;2024-02-26T06:11:05;10.60;;;5.70;;
23270;SDS011;11804;51.118;17.058;2024-02-26T06:13:34;13.33;;;6.03;;
23270;SDS011;11804;51.118;17.058;2024-02-26T06:16:02;13.97;;;5.80;;
23270;SDS011;11804;51.118;17.058;2024-02-26T06:18:31;13.50;;;6.80;;
23270;SDS011;11804;51.118;17.058;2024-02-26T06:20:58;14.60;;;5.90;;
23270;SDS011;11804;51.118;17.058;2024-02-26T06:23:28;10.57;;;5.67;;
23270;SDS011;11804;51.118;17.058;2024-02-26T06:25:55;15.33;;;6.73;;
23270;SDS011;11804;51.118;17.058;2024-02-26T06:28:23;11.30;;;6.17;;
23270;SDS011;11804;51.118;17.058;2024-02-26T06:30:51;13.60;;;5.93;;
23270;SDS011;11804;51.118;17.058;2024-02-26T06:33:18;13.97;;;5.90;;
23270;SDS011;11804;51.118;17.058;2024-02-26T06:35:46;15.17;;;8.40;;
23270;SDS011;11804;51.118;17.058;2024-02-26T06:38:13;18.07;;;6.47;;
23270;SDS011;11804;51.118;17.058;2024-02-26T06:40:41;15.63;;;7.80;;
23270;SDS011;11804;51.118;17.058;2024-02-26T06:43:09;19.07;;;7.47;;
23270;SDS011;11804;51.118;17.058;2024-02-26T06:45:36;11.63;;;6.03;;
23270;SDS011;11804;51.118;17.058;2024-02-26T06:48:04;14.90;;;7.63;;
23270;SDS011;11804;51.118;17.058;2024-02-26T06:50:32;16.50;;;8.00;;
23270;SDS011;11804;51.118;17.058;2024-02-26T06:53:00;18.37;;;8.83;;
23270;SDS011;11804;51.118;17.058;2024-02-26T06:55:27;19.87;;;8.17;;
23270;SDS011;11804;51.118;17.058;2024-02-26T06:57:55;13.33;;;7.33;;
23270;SDS011;11804;51.118;17.058;2024-02-26T07:00:22;21.60;;;7.07;;
23270;SDS011;11804;51.118;17.058;2024-02-26T07:02:50;13.63;;;7.10;;
23270;SDS011;11804;51.118;17.058;2024-02-26T07:05:17;20.20;;;8.07;;
23270;SDS011;11804;51.118;17.058;2024-02-26T07:07:45;13.43;;;7.87;;
23270;SDS011;11804;51.118;17.058;2024-02-26T07:10:13;18.70;;;6.90;;
23270;SDS011;11804;51.118;17.058;2024-02-26T07:12:40;14.63;;;6.40;;
23270;SDS011;11804;51.118;17.058;2024-02-26T07:15:09;17.07;;;7.13;;
23270;SDS011;11804;51.118;17.058;2024-02-26T07:17:37;16.23;;;7.60;;
23270;SDS011;11804;51.118;17.058;2024-02-26T07:20:06;14.43;;;7.23;;
23270;SDS011;11804;51.118;17.058;2024-02-26T07:22:35;16.97;;;7.10;;
23270;SDS011;11804;51.118;17.058;2024-02-26T07:25:03;17.67;;;7.73;;
23270;SDS011;11804;51.118;17.058;2024-02-26T07:27:35;19.53;;;8.17;;
23270;SDS011;11804;51.118;17.058;2024-02-26T07:30:04;16.63;;;7.37;;
23270;SDS011;11804;51.118;17.058;2024-02-26T07:32:32;18.80;;;6.63;;
23270;SDS011;11804;51.118;17.058;2024-02-26T07:35:01;19.83;;;8.60;;
23270;SDS011;11804;51.118;17.058;2024-02-26T07:37:28;16.37;;;7.27;;
23270;SDS011;11804;51.118;17.058;2024-02-26T07:39:56;15.07;;;7.00;;
23270;SDS011;11804;51.118;17.058;2024-02-26T07:42:24;18.93;;;6.27;;
23270;SDS011;11804;51.118;17.058;2024-02-26T07:44:51;21.73;;;7.93;;
23270;SDS011;11804;51.118;17.058;2024-02-26T07:47:19;14.93;;;7.50;;
23270;SDS011;11804;51.118;17.058;2024-02-26T07:49:47;16.40;;;7.73;;
23270;SDS011;11804;51.118;17.058;2024-02-26T07:52:15;17.00;;;7.30;;
23270;SDS011;11804;51.118;17.058;2024-02-26T07:54:42;14.27;;;6.50;;
23270;SDS011;11804;51.118;17.058;2024-02-26T07:57:10;16.60;;;7.00;;
23270;SDS011;11804;51.118;17.058;2024-02-26T07:59:40;14.77;;;7.07;;
23270;SDS011;11804;51.118;17.058;2024-02-26T08:02:08;18.30;;;6.37;;
23270;SDS011;11804;51.118;17.058;2024-02-26T08:04:35;20.47;;;7.80;;
23270;SDS011;11804;51.118;17.058;2024-02-26T08:07:03;12.53;;;6.80;;
23270;SDS011;11804;51.118;17.058;2024-02-26T08:09:31;13.60;;;6.40;;
23270;SDS011;11804;51.118;17.058;2024-02-26T08:11:59;14.10;;;6.83;;
23270;SDS011;11804;51.118;17.058;2024-02-26T08:14:28;16.00;;;7.00;;
23270;SDS011;11804;51.118;17.058;2024-02-26T08:16:57;10.97;;;5.40;;
23270;SDS011;11804;51.118;17.058;2024-02-26T08:19:26;17.50;;;7.10;;
23270;SDS011;11804;51.118;17.058;2024-02-26T08:21:53;11.00;;;5.43;;
23270;SDS011;11804;51.118;17.058;2024-02-26T08:24:21;12.97;;;6.17;;
23270;SDS011;11804;51.118;17.058;2024-02-26T08:26:50;11.73;;;5.77;;
23270;SDS011;11804;51.118;17.058;2024-02-26T08:29:18;13.10;;;5.73;;
23270;SDS011;11804;51.118;17.058;2024-02-26T08:31:46;12.07;;;5.63;;
23270;SDS011;11804;51.118;17.058;2024-02-26T08:34:15;9.63;;;5.03;;
23270;SDS011;11804;51.118;17.058;2024-02-26T08:36:42;10.60;;;5.00;;
23270;SDS011;11804;51.118;17.058;2024-02-26T08:39:10;10.27;;;4.80;;
23270;SDS011;11804;51.118;17.058;2024-02-26T08:41:39;11.63;;;5.37;;
23270;SDS011;11804;51.118;17.058;2024-02-26T08:44:07;12.00;;;5.17;;
23270;SDS011;11804;51.118;17.058;2024-02-26T08:46:34;10.77;;;4.63;;
23270;SDS011;11804;51.118;17.058;2024-02-26T08:49:02;9.23;;;3.97;;
23270;SDS011;11804;51.118;17.058;2024-02-26T08:51:30;9.80;;;4.27;;
23270;SDS011;11804;51.118;17.058;2024-02-26T08:53:58;7.40;;;3.43;;
23270;SDS011;11804;51.118;17.058;2024-02-26T08:56:26;6.17;;;3.27;;
23270;SDS011;11804;51.118;17.058;2024-02-26T08:58:53;6.27;;;3.50;;
23270;SDS011;11804;51.118;17.058;2024-02-26T09:01:22;17.87;;;3.20;;
23270;SDS011;11804;51.118;17.058;2024-02-26T09:03:50;5.03;;;3.10;;
23270;SDS011;11804;51.118;17.058;2024-02-26T09:06:18;5.87;;;2.90;;
23270;SDS011;11804;51.118;17.058;2024-02-26T09:08:45;6.27;;;3.13;;
23270;SDS011;11804;51.118;17.058;2024-02-26T09:11:13;6.23;;;2.73;;
23270;SDS011;11804;51.118;17.058;2024-02-26T09:13:40;4.70;;;2.70;;
23270;SDS011;11804;51.118;17.058;2024-02-26T09:16:08;5.70;;;3.47;;
23270;SDS011;11804;51.118;17.058;2024-02-26T09:18:36;8.57;;;2.83;;
23270;SDS011;11804;51.118;17.058;2024-02-26T09:21:06;5.13;;;2.47;;
23270;SDS011;11804;51.118;17.058;2024-02-26T09:23:34;4.47;;;2.47;;
23270;SDS011;11804;51.118;17.058;2024-02-26T09:26:04;5.17;;;2.80;;
23270;SDS011;11804;51.118;17.058;2024-02-26T09:28:32;6.23;;;2.53;;
23270;SDS011;11804;51.118;17.058;2024-02-26T09:31:01;5.73;;;2.93;;
23270;SDS011;11804;51.118;17.058;2024-02-26T09:33:32;8.60;;;2.73;;
23270;SDS011;11804;51.118;17.058;2024-02-26T09:36:02;5.03;;;2.10;;
23270;SDS011;11804;51.118;17.058;2024-02-26T09:38:32;4.40;;;2.53;;
23270;SDS011;11804;51.118;17.058;2024-02-26T09:41:01;5.50;;;3.00;;
23270;SDS011;11804;51.118;17.058;2024-02-26T09:43:31;4.97;;;2.60;;
23270;SDS011;11804;51.118;17.058;2024-02-26T09:46:02;12.17;;;3.00;;
23270;SDS011;11804;51.118;17.058;2024-02-26T09:48:30;5.27;;;2.43;;
23270;SDS011;11804;51.118;17.058;2024-02-26T09:51:01;4.87;;;2.13;;
23270;SDS011;11804;51.118;17.058;2024-02-26T09:53:29;4.50;;;2.33;;
23270;SDS011;11804;51.118;17.058;2024-02-26T09:55:59;3.60;;;2.20;;
23270;SDS011;11804;51.118;17.058;2024-02-26T09:58:28;4.73;;;2.37;;
23270;SDS011;11804;51.118;17.058;2024-02-26T10:00:56;5.70;;;2.53;;
23270;SDS011;11804;51.118;17.058;2024-02-26T10:03:28;7.63;;;2.13;;
23270;SDS011;11804;51.118;17.058;2024-02-26T10:05:57;6.50;;;3.00;;
23270;SDS011;11804;51.118;17.058;2024-02-26T10:08:25;3.40;;;2.00;;
23270;SDS011;11804;51.118;17.058;2024-02-26T10:10:54;7.60;;;2.97;;
23270;SDS011;11804;51.118;17.058;2024-02-26T10:13:22;3.93;;;2.50;;
23270;SDS011;11804;51.118;17.058;2024-02-26T10:15:49;4.93;;;2.17;;
23270;SDS011;11804;51.118;17.058;2024-02-26T10:18:17;6.43;;;2.43;;
23270;SDS011;11804;51.118;17.058;2024-02-26T10:23:27;6.23;;;2.03;;
23270;SDS011;11804;51.118;17.058;2024-02-26T10:25:55;5.53;;;2.57;;
23270;SDS011;11804;51.118;17.058;2024-02-26T10:28:23;4.80;;;2.70;;
23270;SDS011;11804;51.118;17.058;2024-02-26T10:30:51;4.47;;;1.97;;
23270;SDS011;11804;51.118;17.058;2024-02-26T10:33:19;2.83;;;1.77;;
23270;SDS011;11804;51.118;17.058;2024-02-26T10:35:47;5.43;;;2.50;;
23270;SDS011;11804;51.118;17.058;2024-02-26T10:38:15;3.83;;;1.97;;
23270;SDS011;11804;51.118;17.058;2024-02-26T10:40:45;4.07;;;2.20;;
23270;SDS011;11804;51.118;17.058;2024-02-26T10:43:14;5.17;;;2.73;;
23270;SDS011;11804;51.118;17.058;2024-02-26T10:45:42;4.23;;;2.33;;
23270;SDS011;11804;51.118;17.058;2024-02-26T10:48:14;4.97;;;2.07;;
23270;SDS011;11804;51.118;17.058;2024-02-26T10:50:42;4.33;;;2.43;;
23270;SDS011;11804;51.118;17.058;2024-02-26T10:53:13;7.67;;;2.07;;
23270;SDS011;11804;51.118;17.058;2024-02-26T10:55:41;4.67;;;2.20;;
23270;SDS011;11804;51.118;17.058;2024-02-26T10:58:11;5.20;;;2.40;;
23270;SDS011;11804;51.118;17.058;2024-02-26T11:00:40;4.53;;;2.30;;
23270;SDS011;11804;51.118;17.058;2024-02-26T11:03:09;5.07;;;2.47;;
23270;SDS011;11804;51.118;17.058;2024-02-26T11:05:39;3.27;;;2.10;;
23270;SDS011;11804;51.118;17.058;2024-02-26T11:08:08;6.13;;;1.93;;
23270;SDS011;11804;51.118;17.058;2024-02-26T11:10:38;5.03;;;1.77;;
23270;SDS011;11804;51.118;17.058;2024-02-26T11:13:06;2.63;;;2.00;;
23270;SDS011;11804;51.118;17.058;2024-02-26T11:15:39;3.70;;;1.80;;
23270;SDS011;11804;51.118;17.058;2024-02-26T11:18:07;4.40;;;2.20;;
23270;SDS011;11804;51.118;17.058;2024-02-26T11:20:35;5.07;;;2.20;;
23270;SDS011;11804;51.118;17.058;2024-02-26T11:23:07;5.10;;;2.17;;
23270;SDS011;11804;51.118;17.058;2024-02-26T11:25:35;4.63;;;2.03;;
23270;SDS011;11804;51.118;17.058;2024-02-26T11:28:06;5.87;;;2.40;;
23270;SDS011;11804;51.118;17.058;2024-02-26T11:30:36;6.77;;;1.90;;
23270;SDS011;11804;51.118;17.058;2024-02-26T11:33:08;4.03;;;2.37;;
23270;SDS011;11804;51.118;17.058;2024-02-26T11:35:40;4.43;;;1.93;;
23270;SDS011;11804;51.118;17.058;2024-02-26T11:38:07;4.37;;;2.20;;
23270;SDS011;11804;51.118;17.058;2024-02-26T11:40:39;4.27;;;2.00;;
23270;SDS011;11804;51.118;17.058;2024-02-26T11:43:08;3.30;;;1.60;;
23270;SDS011;11804;51.118;17.058;2024-02-26T11:48:12;3.40;;;1.13;;
23270;SDS011;11804;51.118;17.058;2024-02-26T11:50:41;3.63;;;1.10;;
23270;SDS011;11804;51.118;17.058;2024-02-26T11:53:28;2.10;;;1.60;;
23270;SDS011;11804;51.118;17.058;2024-02-26T11:58:46;3.03;;;1.60;;
23270;SDS011;11804;51.118;17.058;2024-02-26T12:04:07;1.60;;;1.20;;
23270;SDS011;11804;51.118;17.058;2024-02-26T12:06:46;2.17;;;1.33;;
23270;SDS011;11804;51.118;17.058;2024-02-26T12:12:05;1.43;;;1.03;;
23270;SDS011;11804;51.118;17.058;2024-02-26T12:14:38;4.10;;;1.27;;
23270;SDS011;11804;51.118;17.058;2024-02-26T12:17:07;5.20;;;1.30;;
23270;SDS011;11804;51.118;17.058;2024-02-26T12:19:38;2.70;;;1.47;;
23270;SDS011;11804;51.118;17.058;2024-02-26T12:22:06;2.67;;;1.07;;
23270;SDS011;11804;51.118;17.058;2024-02-26T12:24:35;2.90;;;1.20;;
23270;SDS011;11804;51.118;17.058;2024-02-26T12:27:02;3.17;;;1.10;;
23270;SDS011;11804;51.118;17.058;2024-02-26T12:29:30;2.33;;;1.13;;
23270;SDS011;11804;51.118;17.058;2024-02-26T12:31:58;1.63;;;0.93;;
23270;SDS011;11804;51.118;17.058;2024-02-26T12:34:25;1.77;;;1.00;;
23270;SDS011;11804;51.118;17.058;2024-02-26T12:36:54;2.70;;;1.40;;
23270;SDS011;11804;51.118;17.058;2024-02-26T12:39:22;4.77;;;1.20;;
23270;SDS011;11804;51.118;17.058;2024-02-26T12:41:49;2.60;;;1.43;;
23270;SDS011;11804;51.118;17.058;2024-02-26T12:44:18;2.90;;;1.03;;
23270;SDS011;11804;51.118;17.058;2024-02-26T12:46:59;2.13;;;1.23;;
23270;SDS011;11804;51.118;17.058;2024-02-26T12:49:30;3.57;;;1.10;;
23270;SDS011;11804;51.118;17.058;2024-02-26T12:51:58;1.07;;;0.83;;
23270;SDS011;11804;51.118;17.058;2024-02-26T12:54:29;2.33;;;1.20;;
23270;SDS011;11804;51.118;17.058;2024-02-26T12:56:58;3.03;;;1.60;;
23270;SDS011;11804;51.118;17.058;2024-02-26T12:59:29;3.10;;;1.30;;
23270;SDS011;11804;51.118;17.058;2024-02-26T13:01:57;2.90;;;0.97;;
23270;SDS011;11804;51.118;17.058;2024-02-26T13:04:25;2.03;;;1.20;;
23270;SDS011;11804;51.118;17.058;2024-02-26T13:06:54;1.93;;;1.33;;
23270;SDS011;11804;51.118;17.058;2024-02-26T13:09:27;3.83;;;1.40;;
23270;SDS011;11804;51.118;17.058;2024-02-26T13:11:55;3.20;;;1.23;;
23270;SDS011;11804;51.118;17.058;2024-02-26T13:14:23;3.00;;;1.53;;
23270;SDS011;11804;51.118;17.058;2024-02-26T13:16:57;2.03;;;1.10;;
23270;SDS011;11804;51.118;17.058;2024-02-26T13:19:24;2.83;;;1.37;;
23270;SDS011;11804;51.118;17.058;2024-02-26T13:21:53;2.10;;;1.20;;
23270;SDS011;11804;51.118;17.058;2024-02-26T13:24:21;3.43;;;1.50;;
23270;SDS011;11804;51.118;17.058;2024-02-26T13:26:54;3.37;;;1.13;;
23270;SDS011;11804;51.118;17.058;2024-02-26T13:29:22;2.43;;;1.40;;
23270;SDS011;11804;51.118;17.058;2024-02-26T13:32:00;2.67;;;1.30;;
23270;SDS011;11804;51.118;17.058;2024-02-26T13:34:25;3.53;;;1.73;;
23270;SDS011;11804;51.118;17.058;2024-02-26T13:36:54;3.47;;;1.80;;
23270;SDS011;11804;51.118;17.058;2024-02-26T13:39:27;2.87;;;1.70;;
23270;SDS011;11804;51.118;17.058;2024-02-26T13:41:51;3.87;;;1.70;;
23270;SDS011;11804;51.118;17.058;2024-02-26T13:44:20;6.70;;;2.10;;
23270;SDS011;11804;51.118;17.058;2024-02-26T13:46:48;3.47;;;1.70;;
23270;SDS011;11804;51.118;17.058;2024-02-26T13:49:16;2.87;;;1.23;;
23270;SDS011;11804;51.118;17.058;2024-02-26T13:51:43;2.80;;;1.50;;
23270;SDS011;11804;51.118;17.058;2024-02-26T13:54:11;2.87;;;1.37;;
23270;SDS011;11804;51.118;17.058;2024-02-26T13:56:40;5.43;;;1.90;;
23270;SDS011;11804;51.118;17.058;2024-02-26T13:59:08;3.87;;;1.33;;
23270;SDS011;11804;51.118;17.058;2024-02-26T14:01:35;2.33;;;1.33;;
23270;SDS011;11804;51.118;17.058;2024-02-26T14:04:03;5.17;;;1.83;;
23270;SDS011;11804;51.118;17.058;2024-02-26T14:06:30;3.13;;;1.60;;
23270;SDS011;11804;51.118;17.058;2024-02-26T14:08:58;2.47;;;1.13;;
23270;SDS011;11804;51.118;17.058;2024-02-26T14:11:26;2.80;;;1.17;;
23270;SDS011;11804;51.118;17.058;2024-02-26T14:13:55;1.70;;;1.10;;
23270;SDS011;11804;51.118;17.058;2024-02-26T14:16:22;2.27;;;1.27;;
23270;SDS011;11804;51.118;17.058;2024-02-26T14:18:50;3.20;;;1.50;;
23270;SDS011;11804;51.118;17.058;2024-02-26T14:21:17;2.53;;;1.40;;
23270;SDS011;11804;51.118;17.058;2024-02-26T14:23:45;1.90;;;1.10;;
23270;SDS011;11804;51.118;17.058;2024-02-26T14:26:12;1.60;;;1.03;;
23270;SDS011;11804;51.118;17.058;2024-02-26T14:28:40;3.60;;;1.20;;
23270;SDS011;11804;51.118;17.058;2024-02-26T14:31:08;3.83;;;1.20;;
23270;SDS011;11804;51.118;17.058;2024-02-26T14:33:39;1.90;;;1.07;;
23270;SDS011;11804;51.118;17.058;2024-02-26T14:36:06;1.70;;;1.07;;
23270;SDS011;11804;51.118;17.058;2024-02-26T14:38:34;2.30;;;1.20;;
23270;SDS011;11804;51.118;17.058;2024-02-26T14:41:02;1.57;;;1.07;;
23270;SDS011;11804;51.118;17.058;2024-02-26T14:43:30;2.07;;;0.97;;
23270;SDS011;11804;51.118;17.058;2024-02-26T14:46:01;3.07;;;1.50;;
23270;SDS011;11804;51.118;17.058;2024-02-26T14:48:30;4.13;;;1.20;;